sensor_id;sensor_type;location;lat;lon;timestamp;P1;durP1;ratioP1;P2;durP2;ratioP2
50319;SDS011;36226;53.464;9.852;2022-07-19T00:02:03;10.35;;;5.60;;
50319;SDS011;36226;53.464;9.852;2022-07-19T00:04:30;8.10;;;5.75;;
50319;SDS011;36226;53.464;9.852;2022-07-19T00:06:55;7.68;;;5.47;;
50319;SDS011;36226;53.464;9.852;2022-07-19T00:09:21;8.25;;;5.38;;
50319;SDS011;36226;53.464;9.852;2022-07-19T00:11:47;8.57;;;5.70;;
50319;SDS011;36226;53.464;9.852;2022-07-19T00:14:12;9.57;;;6.07;;
50319;SDS011;36226;53.464;9.852;2022-07-19T00:16:38;7.47;;;4.68;;
50319;SDS011;36226;53.464;9.852;2022-07-19T00:19:03;7.07;;;5.20;;
50319;SDS011;36226;53.464;9.852;2022-07-19T00:21:29;7.63;;;5.22;;
50319;SDS011;36226;53.464;9.852;2022-07-19T00:23:54;9.60;;;5.53;;
50319;SDS011;36226;53.464;9.852;2022-07-19T00:26:19;7.70;;;5.38;;
50319;SDS011;36226;53.464;9.852;2022-07-19T00:28:45;10.75;;;5.43;;
50319;SDS011;36226;53.464;9.852;2022-07-19T00:31:10;7.47;;;5.50;;
50319;SDS011;36226;53.464;9.852;2022-07-19T00:33:35;9.32;;;5.82;;
50319;SDS011;36226;53.464;9.852;2022-07-19T00:36:00;10.05;;;5.90;;
50319;SDS011;36226;53.464;9.852;2022-07-19T00:38:26;10.63;;;5.93;;
50319;SDS011;36226;53.464;9.852;2022-07-19T00:40:51;8.52;;;5.57;;
50319;SDS011;36226;53.464;9.852;2022-07-19T00:43:17;10.13;;;5.90;;
50319;SDS011;36226;53.464;9.852;2022-07-19T00:45:42;8.77;;;6.05;;
50319;SDS011;36226;53.464;9.852;2022-07-19T00:48:07;7.75;;;5.50;;
50319;SDS011;36226;53.464;9.852;2022-07-19T00:50:33;8.25;;;5.40;;
50319;SDS011;36226;53.464;9.852;2022-07-19T00:52:59;11.13;;;5.72;;
50319;SDS011;36226;53.464;9.852;2022-07-19T00:55:27;7.40;;;5.60;;
50319;SDS011;36226;53.464;9.852;2022-07-19T00:57:58;7.38;;;5.43;;
50319;SDS011;36226;53.464;9.852;2022-07-19T01:00:24;8.85;;;5.88;;
50319;SDS011;36226;53.464;9.852;2022-07-19T01:02:51;8.52;;;5.85;;
50319;SDS011;36226;53.464;9.852;2022-07-19T01:05:17;7.60;;;5.57;;
50319;SDS011;36226;53.464;9.852;2022-07-19T01:07:42;9.10;;;5.75;;
50319;SDS011;36226;53.464;9.852;2022-07-19T01:10:08;9.90;;;5.95;;
50319;SDS011;36226;53.464;9.852;2022-07-19T01:12:35;8.48;;;6.25;;
50319;SDS011;36226;53.464;9.852;2022-07-19T01:15:11;8.60;;;5.93;;
50319;SDS011;36226;53.464;9.852;2022-07-19T01:17:40;10.32;;;5.90;;
50319;SDS011;36226;53.464;9.852;2022-07-19T01:20:06;8.50;;;6.05;;
50319;SDS011;36226;53.464;9.852;2022-07-19T01:22:32;8.23;;;5.90;;
50319;SDS011;36226;53.464;9.852;2022-07-19T01:24:57;8.32;;;5.55;;
50319;SDS011;36226;53.464;9.852;2022-07-19T01:27:23;7.70;;;5.55;;
50319;SDS011;36226;53.464;9.852;2022-07-19T01:29:48;8.13;;;5.47;;
50319;SDS011;36226;53.464;9.852;2022-07-19T01:32:13;10.13;;;5.45;;
50319;SDS011;36226;53.464;9.852;2022-07-19T01:34:39;7.97;;;5.47;;
50319;SDS011;36226;53.464;9.852;2022-07-19T01:37:04;6.75;;;5.10;;
50319;SDS011;36226;53.464;9.852;2022-07-19T01:39:29;8.65;;;5.15;;
50319;SDS011;36226;53.464;9.852;2022-07-19T01:41:55;7.18;;;5.05;;
50319;SDS011;36226;53.464;9.852;2022-07-19T01:44:20;8.70;;;5.10;;
50319;SDS011;36226;53.464;9.852;2022-07-19T01:46:45;8.25;;;5.07;;
50319;SDS011;36226;53.464;9.852;2022-07-19T01:49:11;6.95;;;4.95;;
50319;SDS011;36226;53.464;9.852;2022-07-19T01:51:36;7.80;;;4.80;;
50319;SDS011;36226;53.464;9.852;2022-07-19T01:54:01;8.13;;;5.68;;
50319;SDS011;36226;53.464;9.852;2022-07-19T01:56:27;9.60;;;5.40;;
50319;SDS011;36226;53.464;9.852;2022-07-19T01:58:52;7.38;;;5.13;;
50319;SDS011;36226;53.464;9.852;2022-07-19T02:01:17;8.07;;;5.28;;
50319;SDS011;36226;53.464;9.852;2022-07-19T02:03:43;10.82;;;5.57;;
50319;SDS011;36226;53.464;9.852;2022-07-19T02:06:08;10.20;;;5.40;;
50319;SDS011;36226;53.464;9.852;2022-07-19T02:08:34;8.07;;;5.35;;
50319;SDS011;36226;53.464;9.852;2022-07-19T02:11:00;9.55;;;5.72;;
50319;SDS011;36226;53.464;9.852;2022-07-19T02:13:45;7.68;;;5.05;;
50319;SDS011;36226;53.464;9.852;2022-07-19T02:16:10;6.82;;;4.97;;
50319;SDS011;36226;53.464;9.852;2022-07-19T02:18:36;6.70;;;4.93;;
50319;SDS011;36226;53.464;9.852;2022-07-19T02:21:01;7.15;;;5.13;;
50319;SDS011;36226;53.464;9.852;2022-07-19T02:23:26;7.15;;;4.78;;
50319;SDS011;36226;53.464;9.852;2022-07-19T02:25:52;9.00;;;5.35;;
50319;SDS011;36226;53.464;9.852;2022-07-19T02:28:17;7.32;;;5.03;;
50319;SDS011;36226;53.464;9.852;2022-07-19T02:30:42;7.07;;;5.20;;
50319;SDS011;36226;53.464;9.852;2022-07-19T02:33:07;7.85;;;4.80;;
50319;SDS011;36226;53.464;9.852;2022-07-19T02:35:33;7.03;;;4.78;;
50319;SDS011;36226;53.464;9.852;2022-07-19T02:37:58;7.93;;;5.15;;
50319;SDS011;36226;53.464;9.852;2022-07-19T02:40:23;7.47;;;5.15;;
50319;SDS011;36226;53.464;9.852;2022-07-19T02:42:49;7.95;;;5.20;;
50319;SDS011;36226;53.464;9.852;2022-07-19T02:45:14;7.95;;;5.15;;
50319;SDS011;36226;53.464;9.852;2022-07-19T02:47:39;7.82;;;5.07;;
50319;SDS011;36226;53.464;9.852;2022-07-19T02:50:05;9.52;;;5.07;;
50319;SDS011;36226;53.464;9.852;2022-07-19T02:52:31;6.97;;;5.07;;
50319;SDS011;36226;53.464;9.852;2022-07-19T02:54:56;7.72;;;4.93;;
50319;SDS011;36226;53.464;9.852;2022-07-19T02:57:21;7.57;;;4.68;;
50319;SDS011;36226;53.464;9.852;2022-07-19T02:59:47;9.02;;;4.85;;
50319;SDS011;36226;53.464;9.852;2022-07-19T03:02:12;7.22;;;5.05;;
50319;SDS011;36226;53.464;9.852;2022-07-19T03:04:37;9.85;;;5.07;;
50319;SDS011;36226;53.464;9.852;2022-07-19T03:07:03;7.20;;;4.95;;
50319;SDS011;36226;53.464;9.852;2022-07-19T03:09:28;10.00;;;5.10;;
50319;SDS011;36226;53.464;9.852;2022-07-19T03:11:53;6.43;;;5.05;;
50319;SDS011;36226;53.464;9.852;2022-07-19T03:14:19;7.88;;;4.95;;
50319;SDS011;36226;53.464;9.852;2022-07-19T03:16:44;7.68;;;4.70;;
50319;SDS011;36226;53.464;9.852;2022-07-19T03:19:09;7.47;;;4.85;;
50319;SDS011;36226;53.464;9.852;2022-07-19T03:21:35;7.97;;;4.80;;
50319;SDS011;36226;53.464;9.852;2022-07-19T03:24:00;10.32;;;4.93;;
50319;SDS011;36226;53.464;9.852;2022-07-19T03:26:25;7.75;;;4.85;;
50319;SDS011;36226;53.464;9.852;2022-07-19T03:28:51;6.93;;;4.63;;
50319;SDS011;36226;53.464;9.852;2022-07-19T03:31:17;8.07;;;5.13;;
50319;SDS011;36226;53.464;9.852;2022-07-19T03:33:43;7.65;;;4.85;;
50319;SDS011;36226;53.464;9.852;2022-07-19T03:36:08;7.57;;;4.97;;
50319;SDS011;36226;53.464;9.852;2022-07-19T03:38:33;7.50;;;4.55;;
50319;SDS011;36226;53.464;9.852;2022-07-19T03:40:59;8.45;;;5.70;;
50319;SDS011;36226;53.464;9.852;2022-07-19T03:43:24;8.18;;;5.20;;
50319;SDS011;36226;53.464;9.852;2022-07-19T03:45:49;6.82;;;4.68;;
50319;SDS011;36226;53.464;9.852;2022-07-19T03:48:15;7.65;;;4.88;;
50319;SDS011;36226;53.464;9.852;2022-07-19T03:50:42;8.38;;;5.53;;
50319;SDS011;36226;53.464;9.852;2022-07-19T03:53:07;9.10;;;4.82;;
50319;SDS011;36226;53.464;9.852;2022-07-19T03:55:33;7.90;;;4.80;;
50319;SDS011;36226;53.464;9.852;2022-07-19T03:57:58;9.40;;;5.40;;
50319;SDS011;36226;53.464;9.852;2022-07-19T04:00:24;6.82;;;4.53;;
50319;SDS011;36226;53.464;9.852;2022-07-19T04:02:49;7.93;;;5.18;;
50319;SDS011;36226;53.464;9.852;2022-07-19T04:05:15;8.50;;;5.07;;
50319;SDS011;36226;53.464;9.852;2022-07-19T04:07:40;7.30;;;4.80;;
50319;SDS011;36226;53.464;9.852;2022-07-19T04:10:05;8.23;;;5.00;;
50319;SDS011;36226;53.464;9.852;2022-07-19T04:12:31;7.75;;;5.28;;
50319;SDS011;36226;53.464;9.852;2022-07-19T04:14:57;8.00;;;4.85;;
50319;SDS011;36226;53.464;9.852;2022-07-19T04:17:22;8.43;;;5.45;;
50319;SDS011;36226;53.464;9.852;2022-07-19T04:19:48;7.05;;;4.93;;
50319;SDS011;36226;53.464;9.852;2022-07-19T04:22:14;6.50;;;4.80;;
50319;SDS011;36226;53.464;9.852;2022-07-19T04:24:39;6.88;;;4.72;;
50319;SDS011;36226;53.464;9.852;2022-07-19T04:27:05;8.90;;;5.05;;
50319;SDS011;36226;53.464;9.852;2022-07-19T04:29:30;7.53;;;5.38;;
50319;SDS011;36226;53.464;9.852;2022-07-19T04:31:56;7.85;;;5.20;;
50319;SDS011;36226;53.464;9.852;2022-07-19T04:34:21;7.47;;;4.95;;
50319;SDS011;36226;53.464;9.852;2022-07-19T04:36:46;9.27;;;5.00;;
50319;SDS011;36226;53.464;9.852;2022-07-19T04:39:12;6.55;;;4.90;;
50319;SDS011;36226;53.464;9.852;2022-07-19T04:41:37;7.47;;;5.30;;
50319;SDS011;36226;53.464;9.852;2022-07-19T04:44:02;10.52;;;4.95;;
50319;SDS011;36226;53.464;9.852;2022-07-19T04:46:28;8.38;;;5.25;;
50319;SDS011;36226;53.464;9.852;2022-07-19T04:48:53;8.25;;;5.10;;
50319;SDS011;36226;53.464;9.852;2022-07-19T04:51:19;9.32;;;5.35;;
50319;SDS011;36226;53.464;9.852;2022-07-19T04:53:44;8.02;;;5.43;;
50319;SDS011;36226;53.464;9.852;2022-07-19T04:56:09;7.82;;;5.43;;
50319;SDS011;36226;53.464;9.852;2022-07-19T04:58:34;7.05;;;5.32;;
50319;SDS011;36226;53.464;9.852;2022-07-19T05:01:00;7.03;;;5.15;;
50319;SDS011;36226;53.464;9.852;2022-07-19T05:03:25;7.97;;;5.45;;
50319;SDS011;36226;53.464;9.852;2022-07-19T05:05:51;7.47;;;5.25;;
50319;SDS011;36226;53.464;9.852;2022-07-19T05:08:16;7.70;;;5.28;;
50319;SDS011;36226;53.464;9.852;2022-07-19T05:10:42;7.47;;;5.20;;
50319;SDS011;36226;53.464;9.852;2022-07-19T05:13:08;7.07;;;5.00;;
50319;SDS011;36226;53.464;9.852;2022-07-19T05:15:33;6.95;;;5.22;;
50319;SDS011;36226;53.464;9.852;2022-07-19T05:17:58;8.15;;;5.40;;
50319;SDS011;36226;53.464;9.852;2022-07-19T05:20:23;7.63;;;5.07;;
50319;SDS011;36226;53.464;9.852;2022-07-19T05:22:49;7.45;;;5.07;;
50319;SDS011;36226;53.464;9.852;2022-07-19T05:25:15;7.57;;;5.20;;
50319;SDS011;36226;53.464;9.852;2022-07-19T05:27:41;8.02;;;5.25;;
50319;SDS011;36226;53.464;9.852;2022-07-19T05:30:06;6.97;;;5.25;;
50319;SDS011;36226;53.464;9.852;2022-07-19T05:32:32;8.30;;;6.15;;
50319;SDS011;36226;53.464;9.852;2022-07-19T05:34:57;8.13;;;5.82;;
50319;SDS011;36226;53.464;9.852;2022-07-19T05:37:22;9.05;;;5.55;;
50319;SDS011;36226;53.464;9.852;2022-07-19T05:39:48;7.13;;;5.18;;
50319;SDS011;36226;53.464;9.852;2022-07-19T05:42:13;8.55;;;5.53;;
50319;SDS011;36226;53.464;9.852;2022-07-19T05:44:38;7.88;;;5.25;;
50319;SDS011;36226;53.464;9.852;2022-07-19T05:47:04;7.60;;;5.25;;
50319;SDS011;36226;53.464;9.852;2022-07-19T05:49:29;6.60;;;4.75;;
50319;SDS011;36226;53.464;9.852;2022-07-19T05:51:54;8.15;;;5.25;;
50319;SDS011;36226;53.464;9.852;2022-07-19T05:54:20;8.50;;;5.25;;
50319;SDS011;36226;53.464;9.852;2022-07-19T05:56:45;7.60;;;4.90;;
50319;SDS011;36226;53.464;9.852;2022-07-19T05:59:11;9.48;;;5.25;;
50319;SDS011;36226;53.464;9.852;2022-07-19T06:01:36;9.10;;;5.55;;
50319;SDS011;36226;53.464;9.852;2022-07-19T06:04:02;9.15;;;5.40;;
50319;SDS011;36226;53.464;9.852;2022-07-19T06:06:29;6.40;;;4.78;;
50319;SDS011;36226;53.464;9.852;2022-07-19T06:08:56;7.72;;;5.25;;
50319;SDS011;36226;53.464;9.852;2022-07-19T06:11:22;9.38;;;5.55;;
50319;SDS011;36226;53.464;9.852;2022-07-19T06:13:48;6.97;;;5.20;;
50319;SDS011;36226;53.464;9.852;2022-07-19T06:16:13;6.50;;;5.40;;
50319;SDS011;36226;53.464;9.852;2022-07-19T06:18:39;7.93;;;5.20;;
50319;SDS011;36226;53.464;9.852;2022-07-19T06:21:06;6.97;;;5.05;;
50319;SDS011;36226;53.464;9.852;2022-07-19T06:23:33;7.05;;;4.80;;
50319;SDS011;36226;53.464;9.852;2022-07-19T06:25:58;7.05;;;4.70;;
50319;SDS011;36226;53.464;9.852;2022-07-19T06:28:24;8.40;;;4.30;;
50319;SDS011;36226;53.464;9.852;2022-07-19T06:30:50;9.10;;;4.22;;
50319;SDS011;36226;53.464;9.852;2022-07-19T06:33:16;6.78;;;4.18;;
50319;SDS011;36226;53.464;9.852;2022-07-19T06:35:41;6.10;;;4.38;;
50319;SDS011;36226;53.464;9.852;2022-07-19T06:38:06;7.38;;;4.40;;
50319;SDS011;36226;53.464;9.852;2022-07-19T06:40:32;9.07;;;4.25;;
50319;SDS011;36226;53.464;9.852;2022-07-19T06:42:57;6.00;;;4.10;;
50319;SDS011;36226;53.464;9.852;2022-07-19T06:45:23;5.25;;;3.72;;
50319;SDS011;36226;53.464;9.852;2022-07-19T06:47:48;5.15;;;3.55;;
50319;SDS011;36226;53.464;9.852;2022-07-19T06:50:15;5.88;;;3.83;;
50319;SDS011;36226;53.464;9.852;2022-07-19T06:52:41;6.90;;;3.80;;
50319;SDS011;36226;53.464;9.852;2022-07-19T06:55:06;6.40;;;4.40;;
50319;SDS011;36226;53.464;9.852;2022-07-19T06:57:31;6.90;;;3.92;;
50319;SDS011;36226;53.464;9.852;2022-07-19T06:59:57;6.97;;;3.67;;
50319;SDS011;36226;53.464;9.852;2022-07-19T07:02:22;7.45;;;4.10;;
50319;SDS011;36226;53.464;9.852;2022-07-19T07:04:48;5.93;;;4.05;;
50319;SDS011;36226;53.464;9.852;2022-07-19T07:07:13;4.53;;;3.22;;
50319;SDS011;36226;53.464;9.852;2022-07-19T07:09:38;5.82;;;3.85;;
50319;SDS011;36226;53.464;9.852;2022-07-19T07:12:04;5.43;;;3.65;;
50319;SDS011;36226;53.464;9.852;2022-07-19T07:14:29;4.40;;;3.38;;
50319;SDS011;36226;53.464;9.852;2022-07-19T07:16:55;5.28;;;3.30;;
50319;SDS011;36226;53.464;9.852;2022-07-19T07:19:20;4.82;;;3.40;;
50319;SDS011;36226;53.464;9.852;2022-07-19T07:21:45;4.80;;;3.15;;
50319;SDS011;36226;53.464;9.852;2022-07-19T07:24:11;4.70;;;3.22;;
50319;SDS011;36226;53.464;9.852;2022-07-19T07:26:37;4.00;;;3.30;;
50319;SDS011;36226;53.464;9.852;2022-07-19T07:29:02;5.22;;;3.28;;
50319;SDS011;36226;53.464;9.852;2022-07-19T07:31:28;6.78;;;3.67;;
50319;SDS011;36226;53.464;9.852;2022-07-19T07:33:53;4.68;;;3.60;;
50319;SDS011;36226;53.464;9.852;2022-07-19T07:36:18;4.82;;;3.33;;
50319;SDS011;36226;53.464;9.852;2022-07-19T07:38:43;5.93;;;3.33;;
50319;SDS011;36226;53.464;9.852;2022-07-19T07:41:09;7.15;;;3.42;;
50319;SDS011;36226;53.464;9.852;2022-07-19T07:43:35;5.93;;;3.33;;
50319;SDS011;36226;53.464;9.852;2022-07-19T07:46:00;5.78;;;3.63;;
50319;SDS011;36226;53.464;9.852;2022-07-19T07:48:26;4.55;;;3.67;;
50319;SDS011;36226;53.464;9.852;2022-07-19T07:50:51;6.25;;;3.47;;
50319;SDS011;36226;53.464;9.852;2022-07-19T07:53:17;8.10;;;3.50;;
50319;SDS011;36226;53.464;9.852;2022-07-19T07:55:42;4.55;;;3.55;;
50319;SDS011;36226;53.464;9.852;2022-07-19T07:58:08;4.88;;;3.45;;
50319;SDS011;36226;53.464;9.852;2022-07-19T08:00:34;8.40;;;3.75;;
50319;SDS011;36226;53.464;9.852;2022-07-19T08:03:00;4.80;;;3.45;;
50319;SDS011;36226;53.464;9.852;2022-07-19T08:05:25;5.57;;;3.67;;
50319;SDS011;36226;53.464;9.852;2022-07-19T08:07:51;6.53;;;3.65;;
50319;SDS011;36226;53.464;9.852;2022-07-19T08:10:16;5.88;;;3.58;;
50319;SDS011;36226;53.464;9.852;2022-07-19T08:12:42;4.43;;;3.25;;
50319;SDS011;36226;53.464;9.852;2022-07-19T08:15:07;6.53;;;3.63;;
50319;SDS011;36226;53.464;9.852;2022-07-19T08:20:55;5.45;;;3.60;;
50319;SDS011;36226;53.464;9.852;2022-07-19T08:23:20;9.35;;;3.33;;
50319;SDS011;36226;53.464;9.852;2022-07-19T08:25:46;5.43;;;3.17;;
50319;SDS011;36226;53.464;9.852;2022-07-19T08:28:11;6.45;;;3.30;;
50319;SDS011;36226;53.464;9.852;2022-07-19T08:30:36;5.35;;;3.20;;
50319;SDS011;36226;53.464;9.852;2022-07-19T08:33:02;6.45;;;3.20;;
50319;SDS011;36226;53.464;9.852;2022-07-19T08:35:31;6.20;;;3.20;;
50319;SDS011;36226;53.464;9.852;2022-07-19T08:37:57;6.47;;;3.20;;
50319;SDS011;36226;53.464;9.852;2022-07-19T08:40:22;4.40;;;3.08;;
50319;SDS011;36226;53.464;9.852;2022-07-19T08:42:48;5.38;;;3.33;;
50319;SDS011;36226;53.464;9.852;2022-07-19T08:45:13;8.98;;;3.55;;
50319;SDS011;36226;53.464;9.852;2022-07-19T08:47:38;4.72;;;3.45;;
50319;SDS011;36226;53.464;9.852;2022-07-19T08:50:06;5.20;;;3.47;;
50319;SDS011;36226;53.464;9.852;2022-07-19T08:52:33;5.47;;;3.42;;
50319;SDS011;36226;53.464;9.852;2022-07-19T08:54:59;8.02;;;3.88;;
50319;SDS011;36226;53.464;9.852;2022-07-19T08:57:24;8.35;;;3.80;;
50319;SDS011;36226;53.464;9.852;2022-07-19T09:00:08;6.82;;;3.60;;
50319;SDS011;36226;53.464;9.852;2022-07-19T09:02:34;7.43;;;3.30;;
50319;SDS011;36226;53.464;9.852;2022-07-19T09:05:00;7.47;;;3.80;;
50319;SDS011;36226;53.464;9.852;2022-07-19T09:07:32;5.50;;;3.33;;
50319;SDS011;36226;53.464;9.852;2022-07-19T09:10:17;6.32;;;3.60;;
50319;SDS011;36226;53.464;9.852;2022-07-19T09:12:56;5.90;;;3.58;;
50319;SDS011;36226;53.464;9.852;2022-07-19T09:15:49;4.65;;;3.58;;
50319;SDS011;36226;53.464;9.852;2022-07-19T09:18:27;5.47;;;4.07;;
50319;SDS011;36226;53.464;9.852;2022-07-19T09:20:54;4.50;;;3.72;;
50319;SDS011;36226;53.464;9.852;2022-07-19T09:23:21;7.85;;;3.70;;
50319;SDS011;36226;53.464;9.852;2022-07-19T09:25:55;4.93;;;3.95;;
50319;SDS011;36226;53.464;9.852;2022-07-19T09:28:22;5.30;;;3.85;;
50319;SDS011;36226;53.464;9.852;2022-07-19T09:30:53;7.00;;;4.03;;
50319;SDS011;36226;53.464;9.852;2022-07-19T09:33:23;5.68;;;3.38;;
50319;SDS011;36226;53.464;9.852;2022-07-19T09:35:49;8.30;;;4.00;;
50319;SDS011;36226;53.464;9.852;2022-07-19T09:46:35;5.88;;;3.47;;
50319;SDS011;36226;53.464;9.852;2022-07-19T09:51:31;4.72;;;3.53;;
50319;SDS011;36226;53.464;9.852;2022-07-19T09:53:58;4.82;;;3.50;;
50319;SDS011;36226;53.464;9.852;2022-07-19T09:56:23;6.65;;;3.40;;
50319;SDS011;36226;53.464;9.852;2022-07-19T09:58:49;4.82;;;3.45;;
50319;SDS011;36226;53.464;9.852;2022-07-19T10:01:15;6.20;;;3.17;;
50319;SDS011;36226;53.464;9.852;2022-07-19T10:03:41;4.70;;;3.17;;
50319;SDS011;36226;53.464;9.852;2022-07-19T10:06:06;4.65;;;3.55;;
50319;SDS011;36226;53.464;9.852;2022-07-19T10:08:32;4.97;;;3.70;;
50319;SDS011;36226;53.464;9.852;2022-07-19T10:10:57;4.53;;;3.13;;
50319;SDS011;36226;53.464;9.852;2022-07-19T10:13:22;7.90;;;3.42;;
50319;SDS011;36226;53.464;9.852;2022-07-19T10:15:48;4.75;;;2.90;;
50319;SDS011;36226;53.464;9.852;2022-07-19T10:18:16;5.18;;;3.17;;
50319;SDS011;36226;53.464;9.852;2022-07-19T10:20:45;5.43;;;3.42;;
50319;SDS011;36226;53.464;9.852;2022-07-19T10:23:12;5.70;;;3.55;;
50319;SDS011;36226;53.464;9.852;2022-07-19T10:25:42;4.15;;;3.67;;
50319;SDS011;36226;53.464;9.852;2022-07-19T10:28:27;6.32;;;3.17;;
50319;SDS011;36226;53.464;9.852;2022-07-19T10:31:00;4.38;;;3.53;;
50319;SDS011;36226;53.464;9.852;2022-07-19T10:33:27;4.30;;;3.08;;
50319;SDS011;36226;53.464;9.852;2022-07-19T10:35:52;4.95;;;3.75;;
50319;SDS011;36226;53.464;9.852;2022-07-19T10:38:18;5.13;;;3.20;;
50319;SDS011;36226;53.464;9.852;2022-07-19T10:40:44;7.50;;;3.42;;
50319;SDS011;36226;53.464;9.852;2022-07-19T10:43:21;4.97;;;3.28;;
50319;SDS011;36226;53.464;9.852;2022-07-19T10:48:21;5.43;;;3.17;;
50319;SDS011;36226;53.464;9.852;2022-07-19T10:50:59;4.50;;;3.22;;
50319;SDS011;36226;53.464;9.852;2022-07-19T10:56:15;8.25;;;3.55;;
50319;SDS011;36226;53.464;9.852;2022-07-19T10:58:59;5.35;;;3.20;;
50319;SDS011;36226;53.464;9.852;2022-07-19T11:01:30;5.25;;;3.20;;
50319;SDS011;36226;53.464;9.852;2022-07-19T11:07:17;4.80;;;3.20;;
50319;SDS011;36226;53.464;9.852;2022-07-19T11:09:46;6.20;;;3.47;;
50319;SDS011;36226;53.464;9.852;2022-07-19T11:12:23;8.40;;;3.13;;
50319;SDS011;36226;53.464;9.852;2022-07-19T11:14:56;6.82;;;3.00;;
50319;SDS011;36226;53.464;9.852;2022-07-19T11:17:23;3.25;;;2.85;;
50319;SDS011;36226;53.464;9.852;2022-07-19T11:20:05;4.18;;;3.28;;
50319;SDS011;36226;53.464;9.852;2022-07-19T11:22:37;4.23;;;3.10;;
50319;SDS011;36226;53.464;9.852;2022-07-19T11:25:05;3.25;;;2.90;;
50319;SDS011;36226;53.464;9.852;2022-07-19T11:27:31;4.65;;;3.08;;
50319;SDS011;36226;53.464;9.852;2022-07-19T11:29:58;3.97;;;2.92;;
50319;SDS011;36226;53.464;9.852;2022-07-19T11:32:24;6.15;;;3.03;;
50319;SDS011;36226;53.464;9.852;2022-07-19T11:35:06;5.93;;;3.08;;
50319;SDS011;36226;53.464;9.852;2022-07-19T11:37:36;4.70;;;3.03;;
50319;SDS011;36226;53.464;9.852;2022-07-19T11:40:06;3.33;;;2.67;;
50319;SDS011;36226;53.464;9.852;2022-07-19T11:42:34;4.97;;;3.03;;
50319;SDS011;36226;53.464;9.852;2022-07-19T11:45:11;4.22;;;2.65;;
50319;SDS011;36226;53.464;9.852;2022-07-19T11:47:50;5.57;;;2.83;;
50319;SDS011;36226;53.464;9.852;2022-07-19T11:50:21;3.38;;;2.80;;
50319;SDS011;36226;53.464;9.852;2022-07-19T11:52:51;4.32;;;2.80;;
50319;SDS011;36226;53.464;9.852;2022-07-19T11:55:23;3.72;;;2.90;;
50319;SDS011;36226;53.464;9.852;2022-07-19T11:57:50;3.40;;;2.63;;
50319;SDS011;36226;53.464;9.852;2022-07-19T12:00:16;3.70;;;2.80;;
50319;SDS011;36226;53.464;9.852;2022-07-19T12:05:28;5.07;;;2.72;;
50319;SDS011;36226;53.464;9.852;2022-07-19T12:07:56;5.22;;;2.85;;
50319;SDS011;36226;53.464;9.852;2022-07-19T12:12:57;11.98;;;2.50;;
50319;SDS011;36226;53.464;9.852;2022-07-19T12:15:23;3.92;;;2.90;;
50319;SDS011;36226;53.464;9.852;2022-07-19T12:17:57;4.95;;;2.50;;
50319;SDS011;36226;53.464;9.852;2022-07-19T12:22:48;4.45;;;2.35;;
50319;SDS011;36226;53.464;9.852;2022-07-19T12:25:14;3.20;;;2.83;;
50319;SDS011;36226;53.464;9.852;2022-07-19T12:27:39;2.88;;;2.55;;
50319;SDS011;36226;53.464;9.852;2022-07-19T12:30:06;4.30;;;2.50;;
50319;SDS011;36226;53.464;9.852;2022-07-19T12:32:33;3.47;;;2.35;;
50319;SDS011;36226;53.464;9.852;2022-07-19T12:35:04;4.22;;;2.10;;
50319;SDS011;36226;53.464;9.852;2022-07-19T12:37:31;3.33;;;2.50;;
50319;SDS011;36226;53.464;9.852;2022-07-19T12:47:43;3.88;;;2.20;;
50319;SDS011;36226;53.464;9.852;2022-07-19T12:50:17;6.15;;;2.65;;
50319;SDS011;36226;53.464;9.852;2022-07-19T12:53:10;3.40;;;2.72;;
50319;SDS011;36226;53.464;9.852;2022-07-19T12:55:36;4.45;;;2.63;;
50319;SDS011;36226;53.464;9.852;2022-07-19T12:58:04;5.25;;;2.72;;
50319;SDS011;36226;53.464;9.852;2022-07-19T13:00:30;2.80;;;2.47;;
50319;SDS011;36226;53.464;9.852;2022-07-19T13:02:56;3.58;;;2.03;;
50319;SDS011;36226;53.464;9.852;2022-07-19T13:05:22;2.95;;;2.47;;
50319;SDS011;36226;53.464;9.852;2022-07-19T13:07:49;4.65;;;2.55;;
50319;SDS011;36226;53.464;9.852;2022-07-19T13:10:15;2.70;;;2.28;;
50319;SDS011;36226;53.464;9.852;2022-07-19T13:12:40;3.03;;;2.60;;
50319;SDS011;36226;53.464;9.852;2022-07-19T13:15:06;6.97;;;2.70;;
50319;SDS011;36226;53.464;9.852;2022-07-19T13:17:32;3.80;;;2.40;;
50319;SDS011;36226;53.464;9.852;2022-07-19T13:19:58;2.85;;;2.45;;
50319;SDS011;36226;53.464;9.852;2022-07-19T13:22:23;5.95;;;2.50;;
50319;SDS011;36226;53.464;9.852;2022-07-19T13:24:49;5.80;;;2.45;;
50319;SDS011;36226;53.464;9.852;2022-07-19T13:27:14;4.57;;;2.38;;
50319;SDS011;36226;53.464;9.852;2022-07-19T13:29:41;3.97;;;2.30;;
50319;SDS011;36226;53.464;9.852;2022-07-19T13:32:07;3.65;;;2.75;;
50319;SDS011;36226;53.464;9.852;2022-07-19T13:34:34;4.25;;;2.40;;
50319;SDS011;36226;53.464;9.852;2022-07-19T13:37:00;3.03;;;2.40;;
50319;SDS011;36226;53.464;9.852;2022-07-19T13:39:26;4.60;;;2.40;;
50319;SDS011;36226;53.464;9.852;2022-07-19T13:41:51;3.55;;;2.60;;
50319;SDS011;36226;53.464;9.852;2022-07-19T13:44:17;6.57;;;2.63;;
50319;SDS011;36226;53.464;9.852;2022-07-19T13:46:42;2.45;;;2.20;;
50319;SDS011;36226;53.464;9.852;2022-07-19T13:49:07;6.78;;;2.83;;
50319;SDS011;36226;53.464;9.852;2022-07-19T13:51:33;4.65;;;2.47;;
50319;SDS011;36226;53.464;9.852;2022-07-19T13:53:58;3.20;;;2.70;;
50319;SDS011;36226;53.464;9.852;2022-07-19T13:56:23;5.28;;;2.20;;
50319;SDS011;36226;53.464;9.852;2022-07-19T13:58:49;2.70;;;2.15;;
50319;SDS011;36226;53.464;9.852;2022-07-19T14:01:15;3.13;;;2.35;;
50319;SDS011;36226;53.464;9.852;2022-07-19T14:03:40;2.90;;;2.47;;
50319;SDS011;36226;53.464;9.852;2022-07-19T14:06:06;3.45;;;2.42;;
50319;SDS011;36226;53.464;9.852;2022-07-19T14:08:31;3.22;;;2.53;;
50319;SDS011;36226;53.464;9.852;2022-07-19T14:11:00;3.72;;;2.40;;
50319;SDS011;36226;53.464;9.852;2022-07-19T14:13:29;2.50;;;2.30;;
50319;SDS011;36226;53.464;9.852;2022-07-19T14:15:54;2.95;;;2.22;;
50319;SDS011;36226;53.464;9.852;2022-07-19T14:18:20;4.15;;;2.03;;
50319;SDS011;36226;53.464;9.852;2022-07-19T14:20:45;4.18;;;2.78;;
50319;SDS011;36226;53.464;9.852;2022-07-19T14:23:11;3.33;;;2.00;;
50319;SDS011;36226;53.464;9.852;2022-07-19T14:25:37;3.92;;;2.33;;
50319;SDS011;36226;53.464;9.852;2022-07-19T14:28:03;4.30;;;2.08;;
50319;SDS011;36226;53.464;9.852;2022-07-19T14:30:28;5.93;;;2.60;;
50319;SDS011;36226;53.464;9.852;2022-07-19T14:32:54;3.28;;;2.42;;
50319;SDS011;36226;53.464;9.852;2022-07-19T14:35:19;4.75;;;2.30;;
50319;SDS011;36226;53.464;9.852;2022-07-19T14:37:44;3.05;;;2.10;;
50319;SDS011;36226;53.464;9.852;2022-07-19T14:40:13;4.70;;;2.20;;
50319;SDS011;36226;53.464;9.852;2022-07-19T14:42:38;2.70;;;2.50;;
50319;SDS011;36226;53.464;9.852;2022-07-19T14:45:04;2.40;;;2.17;;
50319;SDS011;36226;53.464;9.852;2022-07-19T14:47:31;3.20;;;2.17;;
50319;SDS011;36226;53.464;9.852;2022-07-19T14:49:56;2.65;;;2.10;;
50319;SDS011;36226;53.464;9.852;2022-07-19T14:52:22;4.15;;;2.13;;
50319;SDS011;36226;53.464;9.852;2022-07-19T14:54:47;2.60;;;2.22;;
50319;SDS011;36226;53.464;9.852;2022-07-19T14:57:13;6.25;;;2.30;;
50319;SDS011;36226;53.464;9.852;2022-07-19T14:59:38;4.57;;;2.40;;
50319;SDS011;36226;53.464;9.852;2022-07-19T15:02:03;4.30;;;2.00;;
50319;SDS011;36226;53.464;9.852;2022-07-19T15:04:29;5.53;;;2.30;;
50319;SDS011;36226;53.464;9.852;2022-07-19T15:06:54;3.90;;;2.30;;
50319;SDS011;36226;53.464;9.852;2022-07-19T15:09:20;4.10;;;2.30;;
50319;SDS011;36226;53.464;9.852;2022-07-19T15:11:45;5.70;;;2.20;;
50319;SDS011;36226;53.464;9.852;2022-07-19T15:14:11;5.82;;;2.38;;
50319;SDS011;36226;53.464;9.852;2022-07-19T15:16:36;3.28;;;2.30;;
50319;SDS011;36226;53.464;9.852;2022-07-19T15:19:02;3.30;;;2.15;;
50319;SDS011;36226;53.464;9.852;2022-07-19T15:21:28;4.68;;;2.17;;
50319;SDS011;36226;53.464;9.852;2022-07-19T15:23:54;4.35;;;2.40;;